Main page
METAR-TAF:

METAR-TAF

Airports :

Afonsos Air Force Base

Rio de Janeiro, Rio de Janeiro, Brazil

latitude: 22-52S, longitude: 043-22W, elevation: 34 m

Current weather observation

The report was made 1 hour and 10 minutes ago, at 09:00 UTC
Wind 3 kt from the East/Southeast
Temperature 23°C
Humidity 83%
Pressure 1012 hPa
Visibility 10 km or more
Scattered clouds at a height of 1500 ft
Broken clouds at a height of 6000 ft
light drizzle

METAR: SBAF 140900Z 11003KT 9999 -DZ SCT015 BKN060 23/20 Q1012

Time: 08:10 (10:10 UTC)

Forecast

The report was made 7 hours and 10 minutes ago, at 03:00 UTC
Forecast valid from 14 at 06 UTC to 14 at 18 UTC
Wind 5 kt from the Southeast
Visibility 10 km or more
Few clouds at a height of 2500 ft
Probability 40% :
Temporary
from 14 at 16 UTC to 14 at 18 UTC
Broken clouds at a height of 3000 ft
Few clouds at a height of 3500 ft, Cumulonimbus.
thunderstorm in vicinity

TAF: SBAF 140300Z 1406/1418 13005KT 9999 FEW025 TN22/1408Z TX29/1417Z PROB40 TEMPO 1416/1418 VCTS BKN030 FEW035CB RMK PDJ

Weather observations and forecasts of more than 4000 airports (METAR and TAF reports).

The available stations are represented by yellow and red dots on the map.

Hover mouse over dot to see the name of the station.

Then click to see weather observations and forecasts.

To change the map : click on the green buttons with a black cross to zoom in, on the green button with a dash to zoom out, or on the green arrows for adjacent maps.


METAR-TAF: